Observation data for Northfield on 11/17/2019      Previous  Date  Next       Current Mesonet Observations  Soil Data  Daily Summary Page  Observations in Plain Language
KNOR 170600Z 18004KT 09/03 A2996 RMK A01 T00920033  RH  068%=      5-min Rain = 0
KNOR 170605Z 19004KT 09/03 A2995 RMK A01 T00910033  RH  068%=      5-min Rain = 0
KNOR 170610Z 20003KT 09/03 A2996 RMK A01 T00910033  RH  068%=      5-min Rain = 0
KNOR 170615Z 20002KT 09/03 A2995 RMK A01 T00910034  RH  068%=      5-min Rain = 0
KNOR 170620Z 19000KT 09/03 A2996 RMK A01 T00920033  RH  068%=      5-min Rain = 0
KNOR 170625Z 13001KT 09/03 A2995 RMK A01 T00910034  RH  068%=      5-min Rain = 0
KNOR 170630Z 13003KT 09/03 A2995 RMK A01 T00880032  RH  069%=      5-min Rain = 0
KNOR 170635Z 13004KT 09/03 A2995 RMK A01 T00870033  RH  070%=      5-min Rain = 0
KNOR 170640Z 14003KT 09/03 A2995 RMK A01 T00900034  RH  069%=      5-min Rain = 0
KNOR 170645Z 11003KT 09/03 A2995 RMK A01 T00890033  RH  069%=      5-min Rain = 0
KNOR 170650Z 14004KT 09/03 A2996 RMK A01 T00870032  RH  070%=      5-min Rain = 0
KNOR 170655Z 15004KT 09/03 A2996 RMK A01 T00890034  RH  070%=      5-min Rain = 0
KNOR 170700Z 14004KT 09/03 A2996 RMK A01 T00910034  RH  069%=      5-min Rain = 0
KNOR 170705Z 15005KT 09/03 A2996 RMK A01 T00910034  RH  069%=      5-min Rain = 0
KNOR 170710Z 15006KT 09/03 A2996 RMK A01 T00900034  RH  069%=      5-min Rain = 0
KNOR 170715Z 16006KT 09/03 A2996 RMK A01 T00890034  RH  070%=      5-min Rain = 0
KNOR 170720Z 17007KT 09/03 A2995 RMK A01 T00860033  RH  071%=      5-min Rain = 0
KNOR 170725Z 17006KT 08/03 A2995 RMK A01 T00840034  RH  072%=      5-min Rain = 0
KNOR 170730Z 17006KT 08/04 A2995 RMK A01 T00840035  RH  072%=      5-min Rain = 0
KNOR 170735Z 16005KT 09/04 A2995 RMK A01 T00880036  RH  072%=      5-min Rain = 0
KNOR 170740Z 16005KT 09/04 A2995 RMK A01 T00880036  RH  071%=      5-min Rain = 0
KNOR 170745Z 16005KT 09/04 A2995 RMK A01 T00880036  RH  071%=      5-min Rain = 0
KNOR 170750Z 18005KT 09/04 A2995 RMK A01 T00870035  RH  071%=      5-min Rain = 0
KNOR 170755Z 19005KT 09/03 A2995 RMK A01 T00850034  RH  072%=      5-min Rain = 0
KNOR 170800Z 22003KT 08/03 A2996 RMK A01 T00810033  RH  073%=      5-min Rain = 0
KNOR 170805Z 27002KT 08/03 A2996 RMK A01 T00760031  RH  075%=      5-min Rain = 0
KNOR 170810Z 29003KT 07/03 A2996 RMK A01 T00710029  RH  076%=      5-min Rain = 0
KNOR 170815Z 30004KT 07/03 A2996 RMK A01 T00660027  RH  077%=      5-min Rain = 0
KNOR 170820Z 30005KT 06/02 A2996 RMK A01 T00620024  RH  078%=      5-min Rain = 0
KNOR 170825Z 28004KT 06/02 A2996 RMK A01 T00590023  RH  079%=      5-min Rain = 0
KNOR 170830Z 27004KT 06/02 A2996 RMK A01 T00590023  RH  079%=      5-min Rain = 0
KNOR 170835Z 28005KT 06/02 A2996 RMK A01 T00570022  RH  079%=      5-min Rain = 0
KNOR 170840Z 29005KT 05/02 A2996 RMK A01 T00530019  RH  080%=      5-min Rain = 0
KNOR 170845Z 31007KT 05/02 A2997 RMK A01 T00520020  RH  081%=      5-min Rain = 0
KNOR 170850Z 30006KT 05/02 A2997 RMK A01 T00520020  RH  081%=      5-min Rain = 0
KNOR 170855Z 30006KT 05/02 A2997 RMK A01 T00490018  RH  081%=      5-min Rain = 0
KNOR 170900Z 31006KT 05/02 A2998 RMK A01 T00480019  RH  082%=      5-min Rain = 0
KNOR 170905Z 32005KT 05/02 A2998 RMK A01 T00490018  RH  082%=      5-min Rain = 0
KNOR 170910Z 33005KT 05/02 A2998 RMK A01 T00470018  RH  083%=      5-min Rain = 0
KNOR 170915Z 33006KT 05/02 A2998 RMK A01 T00500021  RH  083%=      5-min Rain = 0
KNOR 170920Z 33006KT 05/02 A2999 RMK A01 T00500021  RH  083%=      5-min Rain = 0
KNOR 170925Z 33007KT 05/02 A2999 RMK A01 T00520022  RH  082%=      5-min Rain = 0
KNOR 170930Z 34006KT 05/02 A2998 RMK A01 T00530022  RH  082%=      5-min Rain = 0
KNOR 170935Z 34005KT 05/02 A2998 RMK A01 T00540022  RH  081%=      5-min Rain = 0
KNOR 170940Z 35006KT 06/02 A2998 RMK A01 T00560022  RH  080%=      5-min Rain = 0
KNOR 170945Z 34007KT 06/02 A2999 RMK A01 T00580022  RH  079%=      5-min Rain = 0
KNOR 170950Z 34007KT 06/02 A30 RMK A01 T00600022  RH  078%=      5-min Rain = 0
KNOR 170955Z 34008KT 06/02 A30 RMK A01 T00610022  RH  078%=      5-min Rain = 0
KNOR 171000Z 34008KT 06/02 A3001 RMK A01 T00600022  RH  077%=      5-min Rain = 0
KNOR 171005Z 33008KT 06/02 A3001 RMK A01 T00600021  RH  077%=      5-min Rain = 0
KNOR 171010Z 34009G14KT 06/02 A3001 RMK A01 T00630022  RH  076%=      5-min Rain = 0
KNOR 171015Z 34011KT 07/02 A3002 RMK A01 T00720022  RH  072%=      5-min Rain = 0
KNOR 171020Z 34010G15KT 08/02 A3002 RMK A01 T00760020  RH  069%=      5-min Rain = 0
KNOR 171025Z 36011G17KT 08/02 A3002 RMK A01 T00830016  RH  064%=      5-min Rain = 0
KNOR 171030Z 36013G18KT 09/01 A3002 RMK A01 T00930013  RH  058%=      5-min Rain = 0
KNOR 171035Z 36011KT 10/01 A3002 RMK A01 T00950011  RH  056%=      5-min Rain = 0
KNOR 171040Z 35012G19KT 10/01 A3003 RMK A01 T00950009  RH  056%=      5-min Rain = 0
KNOR 171045Z 35011KT 10/01 A3003 RMK A01 T00950007  RH  055%=      5-min Rain = 0
KNOR 171050Z 36012KT 10/00 A3003 RMK A01 T00970004  RH  053%=      5-min Rain = 0
KNOR 171055Z 00011KT 10/00 A3003 RMK A01 T00970002  RH  052%=      5-min Rain = 0
KNOR 171100Z 01012KT 10/00 A3003 RMK A01 T00980000  RH  051%=      5-min Rain = 0
KNOR 171105Z 01012KT 10/M00 A3004 RMK A01 T00981001  RH  051%=      5-min Rain = 0
KNOR 171110Z 01012KT 10/M00 A3004 RMK A01 T00981002  RH  050%=      5-min Rain = 0
KNOR 171115Z 36012G17KT 10/M00 A3005 RMK A01 T00971003  RH  050%=      5-min Rain = 0
KNOR 171120Z 00011G17KT 10/M00 A3005 RMK A01 T00951003  RH  051%=      5-min Rain = 0
KNOR 171125Z 00011G17KT 10/M00 A3005 RMK A01 T00961003  RH  051%=      5-min Rain = 0
KNOR 171130Z 00012G18KT 10/M00 A3005 RMK A01 T00971003  RH  050%=      5-min Rain = 0
KNOR 171135Z 00012G17KT 10/M00 A3005 RMK A01 T00961003  RH  051%=      5-min Rain = 0
KNOR 171140Z 36011G16KT 10/M00 A3006 RMK A01 T00951003  RH  051%=      5-min Rain = 0
KNOR 171145Z 00011KT 09/M00 A3006 RMK A01 T00941003  RH  051%=      5-min Rain = 0
KNOR 171150Z 36012KT 09/M00 A3006 RMK A01 T00941002  RH  051%=      5-min Rain = 0
KNOR 171155Z 35011KT 09/M00 A3007 RMK A01 T00931002  RH  052%=      5-min Rain = 0
KNOR 171200Z 35012G17KT 09/M00 A3007 RMK A01 T00921002  RH  052%=      5-min Rain = 0
KNOR 171205Z 35011G16KT 09/M00 A3008 RMK A01 T00901002  RH  053%=      5-min Rain = 0
KNOR 171210Z 35011KT 09/M00 A3008 RMK A01 T00911001  RH  053%=      5-min Rain = 0
KNOR 171215Z 35011G16KT 09/M00 A3008 RMK A01 T00901001  RH  054%=      5-min Rain = 0
KNOR 171220Z 36013G18KT 09/00 A3008 RMK A01 T00920000  RH  053%=      5-min Rain = 0
KNOR 171225Z 35012G17KT 09/00 A3009 RMK A01 T00930001  RH  053%=      5-min Rain = 0
KNOR 171230Z 35013KT 09/00 A3009 RMK A01 T00930002  RH  054%=      5-min Rain = 0
KNOR 171235Z 35013G18KT 09/00 A301 RMK A01 T00930003  RH  054%=      5-min Rain = 0
KNOR 171240Z 35013G18KT 09/00 A301 RMK A01 T00940003  RH  054%=      5-min Rain = 0
KNOR 171245Z 35014G19KT 09/00 A301 RMK A01 T00930004  RH  054%=      5-min Rain = 0
KNOR 171250Z 35012G17KT 09/00 A3011 RMK A01 T00920004  RH  055%=      5-min Rain = 0
KNOR 171255Z 35014G20KT 09/01 A3011 RMK A01 T00930005  RH  055%=      5-min Rain = 0
KNOR 171300Z 35013G20KT 09/01 A3011 RMK A01 T00930006  RH  055%=      5-min Rain = 0
KNOR 171305Z 36013G19KT 09/01 A3012 RMK A01 T00920006  RH  056%=      5-min Rain = 0
KNOR 171310Z 36014G20KT 09/01 A3012 RMK A01 T00920007  RH  056%=      5-min Rain = 0
KNOR 171315Z 35014G19KT 09/01 A3012 RMK A01 T00920007  RH  056%=      5-min Rain = 0
KNOR 171320Z 35013G18KT 09/01 A3012 RMK A01 T00910008  RH  057%=      5-min Rain = 0
KNOR 171325Z 35014G19KT 09/01 A3012 RMK A01 T00930008  RH  056%=      5-min Rain = 0
KNOR 171330Z 35013KT 09/01 A3012 RMK A01 T00920008  RH  057%=      5-min Rain = 0
KNOR 171335Z 36013KT 09/01 A3013 RMK A01 T00920009  RH  057%=      5-min Rain = 0
KNOR 171340Z 36015G21KT 09/01 A3013 RMK A01 T00940010  RH  056%=      5-min Rain = 0
KNOR 171345Z 35013G18KT 09/01 A3013 RMK A01 T00940010  RH  056%=      5-min Rain = 0
KNOR 171350Z 35013G19KT 09/01 A3014 RMK A01 T00940010  RH  056%=      5-min Rain = 0
KNOR 171355Z 35012KT 10/01 A3014 RMK A01 T00950010  RH  056%=      5-min Rain = 0
KNOR 171400Z 35013KT 10/01 A3015 RMK A01 T00960010  RH  056%=      5-min Rain = 0
KNOR 171405Z 35011KT 10/01 A3015 RMK A01 T00970011  RH  056%=      5-min Rain = 0
KNOR 171410Z 35012KT 10/01 A3015 RMK A01 T00980011  RH  055%=      5-min Rain = 0
KNOR 171415Z 35012G19KT 10/01 A3015 RMK A01 T00990011  RH  055%=      5-min Rain = 0
KNOR 171420Z 35013G18KT 10/01 A3015 RMK A01 T01000011  RH  054%=      5-min Rain = 0
KNOR 171425Z 35013G18KT 10/01 A3015 RMK A01 T01020011  RH  054%=      5-min Rain = 0
KNOR 171430Z 35014G19KT 10/01 A3015 RMK A01 T01030011  RH  053%=      5-min Rain = 0
KNOR 171435Z 35013G21KT 11/01 A3015 RMK A01 T01050011  RH  053%=      5-min Rain = 0
KNOR 171440Z 35013G18KT 11/01 A3016 RMK A01 T01060011  RH  052%=      5-min Rain = 0
KNOR 171445Z 35014G21KT 11/01 A3016 RMK A01 T01080011  RH  052%=      5-min Rain = 0
KNOR 171450Z 36016G22KT 11/01 A3016 RMK A01 T01090011  RH  051%=      5-min Rain = 0
KNOR 171455Z 35014G22KT 11/01 A3016 RMK A01 T01110011  RH  051%=      5-min Rain = 0
KNOR 171500Z 35017KT 11/01 A3016 RMK A01 T01100010  RH  051%=      5-min Rain = 0
KNOR 171505Z 36016KT 11/01 A3016 RMK A01 T01130010  RH  050%=      5-min Rain = 0
KNOR 171510Z 36016G21KT 11/01 A3016 RMK A01 T01140010  RH  049%=      5-min Rain = 0
KNOR 171515Z 36015G20KT 12/01 A3016 RMK A01 T01170010  RH  049%=      5-min Rain = 0
KNOR 171520Z 01017G25KT 12/01 A3016 RMK A01 T01180010  RH  048%=      5-min Rain = 0
KNOR 171525Z 00014G21KT 12/01 A3017 RMK A01 T01210011  RH  048%=      5-min Rain = 0
KNOR 171530Z 01015KT 12/01 A3017 RMK A01 T01220011  RH  047%=      5-min Rain = 0
KNOR 171535Z 01017G23KT 12/01 A3017 RMK A01 T01210010  RH  047%=      5-min Rain = 0
KNOR 171540Z 00017G23KT 12/01 A3016 RMK A01 T01230010  RH  047%=      5-min Rain = 0
KNOR 171545Z 01016G22KT 13/01 A3016 RMK A01 T01250011  RH  046%=      5-min Rain = 0
KNOR 171550Z 02018G24KT 13/01 A3015 RMK A01 T01250010  RH  046%=      5-min Rain = 0
KNOR 171555Z 02018KT 13/01 A3015 RMK A01 T01260010  RH  046%=      5-min Rain = 0
KNOR 171600Z 01016G23KT 13/01 A3016 RMK A01 T01290011  RH  045%=      5-min Rain = 0
KNOR 171605Z 01015KT 13/01 A3016 RMK A01 T01310011  RH  045%=      5-min Rain = 0
KNOR 171610Z 01017G22KT 13/01 A3016 RMK A01 T01310011  RH  045%=      5-min Rain = 0
KNOR 171615Z 01016G22KT 13/01 A3017 RMK A01 T01330012  RH  044%=      5-min Rain = 0
KNOR 171620Z 00015G21KT 14/01 A3017 RMK A01 T01360012  RH  043%=      5-min Rain = 0
KNOR 171625Z 01018G24KT 14/01 A3016 RMK A01 T01350011  RH  043%=      5-min Rain = 0
KNOR 171630Z 02015KT 14/01 A3016 RMK A01 T01370012  RH  043%=      5-min Rain = 0
KNOR 171635Z 01015G20KT 14/01 A3016 RMK A01 T01380011  RH  043%=      5-min Rain = 0
KNOR 171640Z 02013G19KT 14/01 A3016 RMK A01 T01410012  RH  042%=      5-min Rain = 0
KNOR 171645Z 01015KT 14/01 A3016 RMK A01 T01420011  RH  041%=      5-min Rain = 0
KNOR 171650Z 01014G19KT 14/01 A3016 RMK A01 T01430011  RH  041%=      5-min Rain = 0
KNOR 171655Z 01012G17KT 15/01 A3016 RMK A01 T01460011  RH  040%=      5-min Rain = 0
KNOR 171700Z 01012G18KT 15/01 A3016 RMK A01 T01470011  RH  040%=      5-min Rain = 0
KNOR 171705Z 02012KT 15/01 A3016 RMK A01 T01470011  RH  040%=      5-min Rain = 0
KNOR 171710Z 02013KT 15/01 A3016 RMK A01 T01480011  RH  040%=      5-min Rain = 0
KNOR 171715Z 01011G17KT 15/01 A3016 RMK A01 T01490012  RH  040%=      5-min Rain = 0
KNOR 171720Z 02012KT 15/01 A3015 RMK A01 T01520011  RH  039%=      5-min Rain = 0
KNOR 171725Z 36011KT 15/01 A3015 RMK A01 T01540011  RH  038%=      5-min Rain = 0
KNOR 171730Z 01012G18KT 16/01 A3015 RMK A01 T01550011  RH  038%=      5-min Rain = 0
KNOR 171735Z 35010KT 16/01 A3015 RMK A01 T01550011  RH  038%=      5-min Rain = 0
KNOR 171740Z 35011G16KT 16/01 A3015 RMK A01 T01550011  RH  038%=      5-min Rain = 0
KNOR 171745Z 36010KT 16/01 A3014 RMK A01 T01600011  RH  037%=      5-min Rain = 0
KNOR 171750Z 03013KT 16/01 A3014 RMK A01 T01590010  RH  037%=      5-min Rain = 0
KNOR 171755Z 01014KT 16/01 A3014 RMK A01 T01590010  RH  037%=      5-min Rain = 0
KNOR 171800Z 01014G19KT 16/01 A3014 RMK A01 T01610010  RH  037%=      5-min Rain = 0
KNOR 171805Z 01012G18KT 17/01 A3014 RMK A01 T01650011  RH  036%=      5-min Rain = 0
KNOR 171810Z 01013G18KT 16/01 A3014 RMK A01 T01630010  RH  036%=      5-min Rain = 0
KNOR 171815Z 01013G19KT 17/01 A3014 RMK A01 T01650010  RH  035%=      5-min Rain = 0
KNOR 171820Z 02014KT 17/01 A3014 RMK A01 T01650011  RH  036%=      5-min Rain = 0
KNOR 171825Z 01012G19KT 17/01 A3014 RMK A01 T01660011  RH  035%=      5-min Rain = 0
KNOR 171830Z 35012G17KT 17/01 A3013 RMK A01 T01710011  RH  034%=      5-min Rain = 0
KNOR 171835Z 00015G21KT 17/01 A3013 RMK A01 T01680010  RH  035%=      5-min Rain = 0
KNOR 171840Z 01014G19KT 17/01 A3013 RMK A01 T01670010  RH  035%=      5-min Rain = 0
KNOR 171845Z 36014G19KT 17/01 A3012 RMK A01 T01700011  RH  035%=      5-min Rain = 0
KNOR 171850Z 02015G20KT 17/01 A3012 RMK A01 T01720011  RH  034%=      5-min Rain = 0
KNOR 171855Z 01014G20KT 18/01 A3012 RMK A01 T01750011  RH  034%=      5-min Rain = 0
KNOR 171900Z 00014G20KT 17/01 A3012 RMK A01 T01690011  RH  035%=      5-min Rain = 0
KNOR 171905Z 35012KT 17/01 A3012 RMK A01 T01740011  RH  034%=      5-min Rain = 0
KNOR 171910Z 01013G20KT 18/01 A3012 RMK A01 T01750010  RH  033%=      5-min Rain = 0
KNOR 171915Z 36010KT 18/01 A3012 RMK A01 T01750010  RH  033%=      5-min Rain = 0
KNOR 171920Z 36013G18KT 18/01 A3011 RMK A01 T01780009  RH  033%=      5-min Rain = 0
KNOR 171925Z 01011G17KT 17/01 A3011 RMK A01 T01740009  RH  033%=      5-min Rain = 0
KNOR 171930Z 35012G19KT 18/01 A301 RMK A01 T01750009  RH  033%=      5-min Rain = 0
KNOR 171935Z 01014KT 18/01 A301 RMK A01 T01750009  RH  033%=      5-min Rain = 0
KNOR 171940Z 01010G16KT 17/01 A301 RMK A01 T01730009  RH  034%=      5-min Rain = 0
KNOR 171945Z 36012G19KT 18/01 A301 RMK A01 T01750008  RH  033%=      5-min Rain = 0
KNOR 171950Z 34010G15KT 18/01 A3009 RMK A01 T01750008  RH  033%=      5-min Rain = 0
KNOR 171955Z 00010G15KT 18/01 A3009 RMK A01 T01760007  RH  032%=      5-min Rain = 0
KNOR 172000Z 01009G15KT 18/01 A3008 RMK A01 T01760005  RH  032%=      5-min Rain = 0
KNOR 172005Z 35010KT 18/00 A3008 RMK A01 T01790004  RH  031%=      5-min Rain = 0
KNOR 172010Z 35010G17KT 18/00 A3008 RMK A01 T01790003  RH  031%=      5-min Rain = 0
KNOR 172015Z 01007KT 18/01 A3007 RMK A01 T01810005  RH  031%=      5-min Rain = 0
KNOR 172020Z 36010KT 18/01 A3007 RMK A01 T01800005  RH  031%=      5-min Rain = 0
KNOR 172025Z 00010KT 18/00 A3007 RMK A01 T01790004  RH  031%=      5-min Rain = 0
KNOR 172030Z 00007G12KT 18/00 A3007 RMK A01 T01790002  RH  031%=      5-min Rain = 0
KNOR 172035Z 36008KT 18/00 A3007 RMK A01 T01820001  RH  030%=      5-min Rain = 0
KNOR 172040Z 02009G14KT 18/M00 A3007 RMK A01 T01791002  RH  030%=      5-min Rain = 0
KNOR 172045Z 01010KT 18/M00 A3007 RMK A01 T01771003  RH  030%=      5-min Rain = 0
KNOR 172050Z 36008KT 18/M00 A3007 RMK A01 T01801001  RH  030%=      5-min Rain = 0
KNOR 172055Z 35006G11KT 18/M00 A3007 RMK A01 T01801003  RH  029%=      5-min Rain = 0
KNOR 172100Z 34007KT 18/M00 A3006 RMK A01 T01801002  RH  030%=      5-min Rain = 0
KNOR 172105Z 36007G13KT 18/M00 A3006 RMK A01 T01811002  RH  029%=      5-min Rain = 0
KNOR 172110Z 01006G11KT 18/M00 A3006 RMK A01 T01821002  RH  029%=      5-min Rain = 0
KNOR 172115Z 35008KT 18/M00 A3006 RMK A01 T01831003  RH  029%=      5-min Rain = 0
KNOR 172120Z 35007KT 18/M00 A3006 RMK A01 T01811003  RH  029%=      5-min Rain = 0
KNOR 172125Z 01007KT 18/M00 A3006 RMK A01 T01801003  RH  029%=      5-min Rain = 0
KNOR 172130Z 00007KT 18/M00 A3006 RMK A01 T01801004  RH  029%=      5-min Rain = 0
KNOR 172135Z 01006KT 18/M01 A3006 RMK A01 T01821005  RH  029%=      5-min Rain = 0
KNOR 172140Z 00009KT 18/M01 A3006 RMK A01 T01821007  RH  028%=      5-min Rain = 0
KNOR 172145Z 36008KT 18/M01 A3006 RMK A01 T01811006  RH  029%=      5-min Rain = 0
KNOR 172150Z 35007KT 18/M01 A3006 RMK A01 T01801005  RH  029%=      5-min Rain = 0
KNOR 172155Z 36006KT 18/M01 A3006 RMK A01 T01821005  RH  028%=      5-min Rain = 0
KNOR 172200Z 01010KT 18/M01 A3006 RMK A01 T01791005  RH  029%=      5-min Rain = 0
KNOR 172205Z 35007KT 18/M01 A3006 RMK A01 T01771005  RH  029%=      5-min Rain = 0
KNOR 172210Z 36005KT 18/M00 A3006 RMK A01 T01771004  RH  030%=      5-min Rain = 0
KNOR 172215Z 02005KT 18/M01 A3006 RMK A01 T01791005  RH  029%=      5-min Rain = 0
KNOR 172220Z 00006KT 18/M01 A3006 RMK A01 T01781006  RH  029%=      5-min Rain = 0
KNOR 172225Z 36008KT 18/M01 A3006 RMK A01 T01771006  RH  029%=      5-min Rain = 0
KNOR 172230Z 36006KT 18/M01 A3006 RMK A01 T01751006  RH  030%=      5-min Rain = 0
KNOR 172235Z 01007KT 17/M01 A3006 RMK A01 T01741006  RH  030%=      5-min Rain = 0
KNOR 172240Z 02006KT 17/M01 A3006 RMK A01 T01731006  RH  030%=      5-min Rain = 0
KNOR 172245Z 04005KT 17/M01 A3006 RMK A01 T01721006  RH  030%=      5-min Rain = 0
KNOR 172250Z 05004KT 17/M01 A3006 RMK A01 T01711006  RH  030%=      5-min Rain = 0
KNOR 172255Z 02005KT 17/M01 A3006 RMK A01 T01701006  RH  030%=      5-min Rain = 0
KNOR 172300Z 01004KT 17/M01 A3006 RMK A01 T01681006  RH  031%=      5-min Rain = 0
KNOR 172305Z 01003KT 17/M01 A3006 RMK A01 T01671007  RH  031%=      5-min Rain = 0
KNOR 172310Z 01002KT 17/M01 A3007 RMK A01 T01651007  RH  031%=      5-min Rain = 0
KNOR 172315Z 35002KT 16/M01 A3007 RMK A01 T01631007  RH  032%=      5-min Rain = 0
KNOR 172320Z 36002KT 16/M01 A3007 RMK A01 T01591008  RH  032%=      5-min Rain = 0
KNOR 172325Z 01003KT 16/M01 A3007 RMK A01 T01551008  RH  033%=      5-min Rain = 0
KNOR 172330Z 02003KT 15/M01 A3007 RMK A01 T01521007  RH  034%=      5-min Rain = 0
KNOR 172335Z 01003KT 15/M01 A3007 RMK A01 T01501007  RH  034%=      5-min Rain = 0
KNOR 172340Z 01003KT 15/M01 A3007 RMK A01 T01471007  RH  035%=      5-min Rain = 0
KNOR 172345Z 00003KT 15/M01 A3007 RMK A01 T01451007  RH  035%=      5-min Rain = 0
KNOR 172350Z 00003KT 14/M01 A3007 RMK A01 T01431007  RH  036%=      5-min Rain = 0
KNOR 172355Z 01003KT 14/M01 A3007 RMK A01 T01421007  RH  036%=      5-min Rain = 0
KNOR 180000Z 02003KT 14/M01 A3007 RMK A01 T01421007  RH  036%=      5-min Rain = 0
KNOR 180005Z 03002KT 14/M01 A3007 RMK A01 T01411007  RH  036%=      5-min Rain = 0
KNOR 180010Z 03002KT 14/M01 A3007 RMK A01 T01441007  RH  036%=      5-min Rain = 0
KNOR 180015Z 03003KT 14/M01 A3007 RMK A01 T01441007  RH  036%=      5-min Rain = 0
KNOR 180020Z 03003KT 14/M01 A3007 RMK A01 T01441007  RH  036%=      5-min Rain = 0
KNOR 180025Z 05002KT 14/M01 A3007 RMK A01 T01421007  RH  036%=      5-min Rain = 0
KNOR 180030Z 09003KT 14/M01 A3008 RMK A01 T01401007  RH  037%=      5-min Rain = 0
KNOR 180035Z 09004KT 14/M01 A3008 RMK A01 T01351007  RH  038%=      5-min Rain = 0
KNOR 180040Z 09003KT 13/M01 A3008 RMK A01 T01321007  RH  039%=      5-min Rain = 0
KNOR 180045Z 11003KT 13/M01 A3008 RMK A01 T01321007  RH  039%=      5-min Rain = 0
KNOR 180050Z 11003KT 13/M01 A3008 RMK A01 T01341007  RH  038%=      5-min Rain = 0
KNOR 180055Z 11003KT 13/M01 A3008 RMK A01 T01331007  RH  038%=      5-min Rain = 0
KNOR 180100Z 12004KT 13/M01 A3008 RMK A01 T01321007  RH  039%=      5-min Rain = 0
KNOR 180105Z 12004KT 13/M01 A3008 RMK A01 T01321006  RH  039%=      5-min Rain = 0
KNOR 180110Z 12004KT 13/M01 A3008 RMK A01 T01321006  RH  039%=      5-min Rain = 0
KNOR 180115Z 12004KT 13/M01 A3008 RMK A01 T01301006  RH  039%=      5-min Rain = 0
KNOR 180120Z 13004KT 13/M01 A3008 RMK A01 T01271006  RH  040%=      5-min Rain = 0
KNOR 180125Z 13004KT 13/M01 A3008 RMK A01 T01251007  RH  041%=      5-min Rain = 0
KNOR 180130Z 12004KT 13/M01 A3008 RMK A01 T01261007  RH  040%=      5-min Rain = 0
KNOR 180135Z 12004KT 13/M01 A3008 RMK A01 T01281006  RH  040%=      5-min Rain = 0
KNOR 180140Z 12003KT 13/M01 A3008 RMK A01 T01281007  RH  040%=      5-min Rain = 0
KNOR 180145Z 12003KT 13/M01 A3008 RMK A01 T01291007  RH  039%=      5-min Rain = 0
KNOR 180150Z 12003KT 13/M01 A3008 RMK A01 T01291008  RH  039%=      5-min Rain = 0
KNOR 180155Z 13003KT 13/M01 A3009 RMK A01 T01271008  RH  040%=      5-min Rain = 0
KNOR 180200Z 14003KT 12/M01 A3009 RMK A01 T01211009  RH  041%=      5-min Rain = 0
KNOR 180205Z 16002KT 10/M01 A3009 RMK A01 T00981014  RH  046%=      5-min Rain = 0
KNOR 180210Z 18002KT 09/M01 A3009 RMK A01 T00921010  RH  049%=      5-min Rain = 0
KNOR 180215Z 23003KT 09/M01 A3009 RMK A01 T00891011  RH  050%=      5-min Rain = 0
KNOR 180220Z 23004KT 08/M01 A301 RMK A01 T00841010  RH  052%=      5-min Rain = 0
KNOR 180225Z 23003KT 09/M01 A301 RMK A01 T00861009  RH  052%=      5-min Rain = 0
KNOR 180230Z 24004KT 09/M01 A301 RMK A01 T00861009  RH  052%=      5-min Rain = 0
KNOR 180235Z 24004KT 09/M01 A301 RMK A01 T00861008  RH  052%=      5-min Rain = 0
KNOR 180240Z 23003KT 09/M01 A301 RMK A01 T00891006  RH  052%=      5-min Rain = 0
KNOR 180245Z 24004KT 09/M01 A301 RMK A01 T00891005  RH  052%=      5-min Rain = 0
KNOR 180250Z 24005KT 09/M01 A301 RMK A01 T00861005  RH  053%=      5-min Rain = 0
KNOR 180255Z 23004KT 08/M01 A301 RMK A01 T00831005  RH  054%=      5-min Rain = 0
KNOR 180300Z 22006KT 08/M01 A3009 RMK A01 T00771007  RH  056%=      5-min Rain = 0
KNOR 180305Z 22005KT 07/M01 A3009 RMK A01 T00741006  RH  058%=      5-min Rain = 0
KNOR 180310Z 22006KT 07/M01 A3009 RMK A01 T00741006  RH  057%=      5-min Rain = 0
KNOR 180315Z 22006KT 07/M01 A3009 RMK A01 T00711007  RH  058%=      5-min Rain = 0
KNOR 180320Z 23005KT 07/M01 A3009 RMK A01 T00691007  RH  059%=      5-min Rain = 0
KNOR 180325Z 24005KT 07/M01 A3009 RMK A01 T00681007  RH  059%=      5-min Rain = 0
KNOR 180330Z 25005KT 07/M01 A3009 RMK A01 T00671007  RH  060%=      5-min Rain = 0
KNOR 180335Z 25004KT 07/M01 A3009 RMK A01 T00671007  RH  060%=      5-min Rain = 0
KNOR 180340Z 25004KT 07/M01 A301 RMK A01 T00651006  RH  061%=      5-min Rain = 0
KNOR 180345Z 25005KT 06/M01 A301 RMK A01 T00641006  RH  061%=      5-min Rain = 0
KNOR 180350Z 25005KT 06/M01 A301 RMK A01 T00611006  RH  063%=      5-min Rain = 0
KNOR 180355Z 24005KT 06/M01 A301 RMK A01 T00561007  RH  065%=      5-min Rain = 0
KNOR 180400Z 24005KT 05/M01 A3009 RMK A01 T00541007  RH  065%=      5-min Rain = 0
KNOR 180405Z 23006KT 05/M01 A3009 RMK A01 T00521008  RH  066%=      5-min Rain = 0
KNOR 180410Z 23006KT 05/M01 A3009 RMK A01 T00521007  RH  067%=      5-min Rain = 0
KNOR 180415Z 24005KT 05/M01 A3008 RMK A01 T00511007  RH  067%=      5-min Rain = 0
KNOR 180420Z 24005KT 05/M01 A3008 RMK A01 T00481008  RH  067%=      5-min Rain = 0
KNOR 180425Z 24005KT 05/M01 A3008 RMK A01 T00471008  RH  068%=      5-min Rain = 0
KNOR 180430Z 23005KT 05/M01 A3008 RMK A01 T00461008  RH  069%=      5-min Rain = 0
KNOR 180435Z 23005KT 04/M01 A3008 RMK A01 T00431009  RH  070%=      5-min Rain = 0
KNOR 180440Z 23006KT 04/M01 A3008 RMK A01 T00421008  RH  071%=      5-min Rain = 0
KNOR 180445Z 23005KT 04/M01 A3007 RMK A01 T00421009  RH  071%=      5-min Rain = 0
KNOR 180450Z 23006KT 04/M01 A3007 RMK A01 T00421008  RH  071%=      5-min Rain = 0
KNOR 180455Z 23005KT 04/M01 A3007 RMK A01 T00441006  RH  071%=      5-min Rain = 0
KNOR 180500Z 23005KT 05/M01 A3006 RMK A01 T00461005  RH  070%=      5-min Rain = 0
KNOR 180505Z 23005KT 05/M01 A3006 RMK A01 T00471005  RH  070%=      5-min Rain = 0
KNOR 180510Z 22005KT 05/M01 A3006 RMK A01 T00451006  RH  070%=      5-min Rain = 0
KNOR 180515Z 22006KT 04/M01 A3006 RMK A01 T00421006  RH  072%=      5-min Rain = 0
KNOR 180520Z 22006KT 04/M01 A3005 RMK A01 T00421005  RH  072%=      5-min Rain = 0
KNOR 180525Z 22004KT 04/M01 A3005 RMK A01 T00431005  RH  072%=      5-min Rain = 0
KNOR 180530Z 23004KT 04/M01 A3005 RMK A01 T00431005  RH  072%=      5-min Rain = 0
KNOR 180535Z 24005KT 04/M01 A3005 RMK A01 T00441005  RH  071%=      5-min Rain = 0
KNOR 180540Z 24006KT 04/M01 A3005 RMK A01 T00401007  RH  072%=      5-min Rain = 0
KNOR 180545Z 24005KT 04/M01 A3005 RMK A01 T00361007  RH  074%=      5-min Rain = 0
KNOR 180550Z 23005KT 04/M01 A3004 RMK A01 T00371007  RH  074%=      5-min Rain = 0
KNOR 180555Z 23006KT 04/M01 A3004 RMK A01 T00361007  RH  074%=      5-min Rain = 0

Page generated in 0.0124 seconds.